Time;durP1;ratioP1;P1;durP2;ratioP2;P2;SDS_P1;SDS_P2;PMS_P1;PMS_P2;Temp;Humidity;BMP_temperature;BMP_pressure;BME280_temperature;BME280_humidity;BME280_pressure;Samples;Min_cycle;Max_cycle;Signal;HPM_P1;HPM_P2
2022/01/22 00:01:13;;;;;;;28.35;14.07;;;0.30;99.90;;;;;;6222839;23;20020;-89
2022/01/22 00:04:01;;;;;;;37.78;15.15;;;0.30;99.90;;;;;;6243111;23;20225;-88
2022/01/22 00:06:51;;;;;;;27.75;14.52;;;0.30;99.90;;;;;;6242994;23;20035;-89
2022/01/22 00:10:06;;;;;;;30.92;14.23;;;0.20;99.90;;;;;;6245436;23;20032;-89
2022/01/22 00:14:23;;;;;;;33.85;13.60;;;0.30;99.90;;;;;;6244055;23;20374;-89
2022/01/22 00:16:07;;;;;;;38.20;12.90;;;0.30;99.90;;;;;;6245381;23;20084;-89
2022/01/22 00:18:54;;;;;;;33.28;13.77;;;0.30;99.90;;;;;;6243268;23;20036;-89
2022/01/22 00:21:42;;;;;;;27.77;12.68;;;0.30;99.90;;;;;;6243604;23;20038;-88
2022/01/22 00:24:36;;;;;;;32.72;13.38;;;0.30;99.90;;;;;;6220744;23;20028;-88
2022/01/22 00:27:25;;;;;;;21.38;12.32;;;0.30;99.90;;;;;;6243798;23;20151;-88
2022/01/22 00:30:23;;;;;;;24.80;12.32;;;0.30;99.90;;;;;;6243092;23;20067;-88
2022/01/22 00:37:20;;;;;;;25.52;12.77;;;0.30;99.90;;;;;;6243245;23;20095;-88
2022/01/22 00:40:11;;;;;;;23.70;12.43;;;0.30;99.90;;;;;;6223552;23;20024;-88
2022/01/22 00:43:00;;;;;;;26.05;13.15;;;0.30;99.90;;;;;;6221572;23;20232;-88
2022/01/22 00:45:53;;;;;;;32.38;13.88;;;0.30;99.90;;;;;;6245560;23;20032;-88
2022/01/22 00:48:41;;;;;;;33.13;14.77;;;0.30;99.90;;;;;;6220463;23;20034;-88
2022/01/22 00:51:28;;;;;;;26.55;13.77;;;0.30;99.90;;;;;;6245688;23;20315;-88
2022/01/22 00:54:16;;;;;;;26.50;13.40;;;0.30;99.90;;;;;;6242320;23;20020;-88
2022/01/22 00:57:05;;;;;;;25.63;12.85;;;0.30;99.90;;;;;;6246038;23;20024;-87
2022/01/22 00:59:54;;;;;;;31.75;13.45;;;0.30;99.90;;;;;;6246475;23;20128;-87
2022/01/22 01:02:41;;;;;;;25.58;13.07;;;0.40;99.90;;;;;;6247073;23;20024;-89
2022/01/22 01:05:29;;;;;;;30.60;12.85;;;0.40;99.90;;;;;;6247511;23;20024;-88
2022/01/22 01:08:19;;;;;;;25.83;12.32;;;0.40;99.90;;;;;;6248637;23;20082;-89
2022/01/22 01:11:07;;;;;;;25.77;13.90;;;0.40;99.90;;;;;;6247298;23;20055;-88
2022/01/22 01:13:58;;;;;;;30.38;12.23;;;0.40;99.90;;;;;;6246035;23;20379;-87
2022/01/22 01:17:11;;;;;;;29.67;12.80;;;0.40;99.90;;;;;;6247032;23;20024;-88
2022/01/22 01:33:00;;;;;;;25.50;13.10;;;0.40;99.90;;;;;;6244310;23;20048;-87
2022/01/22 01:35:51;;;;;;;25.50;13.18;;;0.50;99.90;;;;;;6223063;23;20038;-87
2022/01/22 01:38:42;;;;;;;27.05;12.80;;;0.50;99.90;;;;;;6224160;23;20054;-87
2022/01/22 01:44:43;;;;;;;20.85;12.55;;;0.50;99.90;;;;;;6255884;23;20081;-89
2022/01/22 01:47:30;;;;;;;23.48;10.27;;;0.50;99.90;;;;;;6251431;23;20117;-90
2022/01/22 01:50:20;;;;;;;28.40;13.23;;;0.50;99.90;;;;;;6245193;23;20043;-89
2022/01/22 01:53:31;;;;;;;26.83;12.07;;;0.50;99.90;;;;;;6221948;23;20028;-89
2022/01/22 01:59:26;;;;;;;22.70;12.02;;;0.60;99.90;;;;;;6247173;23;20047;-89
2022/01/22 02:02:13;;;;;;;31.35;13.50;;;0.60;99.90;;;;;;6224491;23;20027;-88
2022/01/22 02:05:08;;;;;;;26.08;12.63;;;0.60;99.90;;;;;;6246895;23;20032;-87
2022/01/22 02:07:55;;;;;;;25.40;11.77;;;0.60;99.90;;;;;;6244625;23;20024;-88
2022/01/22 02:10:48;;;;;;;23.52;12.05;;;0.60;99.90;;;;;;6223535;23;20118;-89
2022/01/22 02:25:56;;;;;;;21.70;11.85;;;0.90;99.90;;;;;;6243605;23;20051;-90
2022/01/22 02:28:50;;;;;;;23.95;13.23;;;0.90;99.90;;;;;;6244879;23;20067;-88
2022/01/22 02:31:45;;;;;;;25.65;12.68;;;1.00;99.90;;;;;;6246850;23;20038;-89
2022/01/22 02:34:41;;;;;;;20.15;12.95;;;1.00;99.90;;;;;;6245157;23;20052;-89
2022/01/22 02:37:36;;;;;;;21.17;12.80;;;1.00;99.90;;;;;;6243112;23;20490;-88
2022/01/22 02:40:27;;;;;;;25.05;14.50;;;1.00;99.90;;;;;;6221459;23;20024;-89
2022/01/22 02:43:16;;;;;;;20.85;13.88;;;1.00;99.90;;;;;;6223283;23;20020;-89
2022/01/22 02:46:08;;;;;;;25.70;15.65;;;1.00;99.90;;;;;;6225923;23;20039;-88
2022/01/22 02:48:56;;;;;;;;;;;1.00;99.90;;;;;;6225781;23;20031;-89
2022/01/22 02:51:43;;;;;;;27.20;15.57;;;1.10;99.90;;;;;;6224021;23;19916;-88
2022/01/22 02:54:31;;;;;;;28.25;16.65;;;1.10;99.90;;;;;;6243490;23;20024;-88
2022/01/22 02:57:20;;;;;;;30.05;17.83;;;1.10;99.90;;;;;;6246052;23;20052;-89
2022/01/22 03:00:21;;;;;;;35.50;16.90;;;1.10;99.90;;;;;;6223277;23;20027;-89
2022/01/22 03:03:11;;;;;;;29.65;16.73;;;1.10;99.90;;;;;;6225378;23;20031;-89
2022/01/22 03:06:03;;;;;;;32.58;17.33;;;1.10;99.90;;;;;;6244703;23;20107;-89
2022/01/22 03:08:52;;;;;;;29.40;17.90;;;1.10;99.90;;;;;;6245941;23;20090;-87
2022/01/22 03:12:49;;;;;;;33.75;16.45;;;1.20;99.90;;;;;;6243784;23;20083;-88
2022/01/22 03:29:52;;;;;;;39.83;18.65;;;1.10;99.90;;;;;;6245747;23;20024;-88
2022/01/22 03:32:45;;;;;;;33.25;17.38;;;1.10;99.90;;;;;;6224210;23;20043;-87
2022/01/22 03:35:35;;;;;;;33.70;18.85;;;1.10;99.90;;;;;;6245761;23;20125;-88
2022/01/22 03:38:23;;;;;;;33.75;18.65;;;1.20;99.90;;;;;;6221474;23;20059;-88
2022/01/22 03:41:19;;;;;;;33.75;19.20;;;1.10;99.90;;;;;;6222191;23;20024;-88
2022/01/22 03:44:10;;;;;;;38.47;18.60;;;1.10;99.90;;;;;;6246826;22;20028;-89
2022/01/22 03:46:57;;;;;;;34.83;18.27;;;1.10;99.90;;;;;;6221343;23;20035;-89
2022/01/22 03:49:46;;;;;;;36.97;19.42;;;1.10;99.90;;;;;;6242250;23;20322;-88
2022/01/22 03:52:35;;;;;;;34.47;17.63;;;1.10;99.90;;;;;;6243541;23;20566;-88
2022/01/22 03:55:37;;;;;;;38.45;20.08;;;1.10;99.90;;;;;;6223470;23;20074;-87
2022/01/22 03:58:26;;;;;;;35.88;18.45;;;1.10;99.90;;;;;;6221692;23;20126;-88
2022/01/22 04:04:10;;;;;;;35.17;19.35;;;1.00;99.90;;;;;;6242713;23;20324;-88
2022/01/22 04:09:45;;;;;;;28.15;16.63;;;1.10;99.90;;;;;;6243888;23;20031;-89
2022/01/22 04:12:52;;;;;;;29.50;16.70;;;1.10;99.90;;;;;;6223368;23;20047;-87
2022/01/22 04:15:42;;;;;;;31.25;18.52;;;1.10;99.90;;;;;;6223856;23;20171;-89
2022/01/22 04:24:52;;;;;;;32.92;18.98;;;1.10;99.90;;;;;;6243200;23;20085;-89
2022/01/22 04:27:39;;;;;;;31.33;18.48;;;1.10;99.90;;;;;;6242354;23;20451;-88
2022/01/22 04:30:29;;;;;;;34.63;18.25;;;1.10;99.90;;;;;;6242976;23;20091;-88
2022/01/22 04:33:20;;;;;;;35.38;17.25;;;1.10;99.90;;;;;;6222647;23;20024;-88
2022/01/22 04:36:13;;;;;;;40.47;18.67;;;1.10;99.90;;;;;;6222459;23;20078;-88
2022/01/22 04:39:14;;;;;;;37.65;19.33;;;1.10;99.90;;;;;;6227354;23;20035;-86
2022/01/22 04:42:03;;;;;;;33.80;18.92;;;1.10;99.90;;;;;;6243029;23;20040;-89
2022/01/22 04:44:58;;;;;;;35.58;18.75;;;1.10;99.90;;;;;;6223033;23;20042;-89
2022/01/22 04:48:10;;;;;;;40.22;20.52;;;1.10;99.90;;;;;;6236137;23;20020;-89
2022/01/22 04:57:17;;;;;;;37.90;17.73;;;1.00;99.90;;;;;;6258365;23;20032;-87
2022/01/22 05:00:13;;;;;;;34.05;16.80;;;1.00;99.90;;;;;;6242351;22;20175;-88
2022/01/22 05:03:04;;;;;;;39.60;20.13;;;1.00;99.90;;;;;;6218538;23;20076;-88
2022/01/22 05:05:53;;;;;;;36.20;18.70;;;1.10;99.90;;;;;;6261677;22;20070;-85
2022/01/22 05:08:41;;;;;;;33.72;17.95;;;1.10;99.90;;;;;;6267398;22;20128;-88
2022/01/22 05:11:28;;;;;;;33.92;17.60;;;1.10;99.90;;;;;;6234381;23;20039;-89
2022/01/22 05:14:15;;;;;;;33.22;18.17;;;1.10;99.90;;;;;;6254711;23;20040;-89
2022/01/22 05:17:05;;;;;;;31.00;16.13;;;1.10;99.90;;;;;;6250195;23;20105;-89
2022/01/22 05:19:59;;;;;;;31.70;18.75;;;1.10;99.90;;;;;;6243214;23;20086;-89
2022/01/22 05:38:36;;;;;;;32.08;17.58;;;1.10;99.90;;;;;;6122993;23;20033;-87
2022/01/22 05:41:23;;;;;;;32.97;17.67;;;1.10;99.90;;;;;;6246073;23;20264;-88
2022/01/22 05:44:11;;;;;;;31.25;17.05;;;1.10;99.90;;;;;;6222315;23;20046;-89
2022/01/22 05:47:04;;;;;;;32.03;17.23;;;1.10;99.90;;;;;;6246557;23;20035;-88
2022/01/22 05:49:52;;;;;;;28.98;16.25;;;1.20;99.90;;;;;;6223554;23;20127;-88
2022/01/22 05:52:53;;;;;;;34.33;17.23;;;1.20;99.90;;;;;;6223867;23;20099;-89
2022/01/22 06:01:50;;;;;;;31.33;17.95;;;1.20;99.90;;;;;;6245870;23;20107;-89
2022/01/22 06:04:38;;;;;;;28.10;16.33;;;1.20;99.90;;;;;;6223347;23;20021;-88
2022/01/22 06:07:25;;;;;;;32.65;17.60;;;1.20;99.90;;;;;;6224457;23;20020;-88
2022/01/22 06:10:25;;;;;;;32.22;18.52;;;1.20;99.90;;;;;;6222296;23;20082;-88
2022/01/22 06:13:16;;;;;;;36.33;17.40;;;1.20;99.90;;;;;;6223210;23;20052;-87
2022/01/22 06:16:06;;;;;;;29.60;17.75;;;1.20;99.90;;;;;;6243834;23;20289;-88
2022/01/22 06:18:53;;;;;;;30.73;16.40;;;1.20;99.90;;;;;;6246582;23;20032;-88
2022/01/22 06:21:41;;;;;;;30.13;17.35;;;1.20;99.90;;;;;;6246692;23;20131;-87
2022/01/22 06:24:31;;;;;;;32.05;17.48;;;1.20;99.90;;;;;;6225031;23;20035;-88
2022/01/22 06:27:20;;;;;;;29.00;16.02;;;1.30;99.90;;;;;;6246618;23;20035;-87
2022/01/22 06:30:08;;;;;;;32.50;16.08;;;1.20;99.90;;;;;;6244287;23;20055;-87
2022/01/22 06:32:55;;;;;;;33.10;17.20;;;1.20;99.90;;;;;;6244298;23;20061;-88
2022/01/22 06:35:42;;;;;;;32.17;16.88;;;1.20;99.90;;;;;;6224608;23;20377;-87
2022/01/22 06:38:29;;;;;;;31.42;17.63;;;1.20;99.90;;;;;;6246892;23;20032;-87
2022/01/22 06:44:25;;;;;;;29.40;17.60;;;1.20;99.90;;;;;;6246743;23;20130;-88
2022/01/22 06:47:12;;;;;;;30.88;16.52;;;1.20;99.90;;;;;;6223303;23;20178;-88
2022/01/22 06:50:03;;;;;;;30.33;17.00;;;1.20;99.90;;;;;;6245280;23;20032;-88
2022/01/22 06:52:57;;;;;;;33.63;17.80;;;1.10;99.90;;;;;;6245998;23;20032;-89
2022/01/22 06:56:09;;;;;;;32.00;16.38;;;1.10;99.90;;;;;;6225081;23;20024;-88
2022/01/22 07:11:23;;;;;;;35.58;18.80;;;1.00;99.90;;;;;;6221293;22;20020;-85
2022/01/22 07:14:10;;;;;;;32.47;18.13;;;1.00;99.90;;;;;;6259123;23;20090;-85
2022/01/22 07:16:57;;;;;;;38.75;17.88;;;1.00;99.90;;;;;;6257027;23;20024;-84
2022/01/22 07:19:45;;;;;;;37.47;17.55;;;1.00;99.90;;;;;;6235091;23;20038;-85
2022/01/22 07:22:54;;;;;;;34.33;17.27;;;1.00;99.90;;;;;;6242867;22;20024;-83
2022/01/22 07:25:43;;;;;;;43.05;18.98;;;1.10;99.90;;;;;;6266126;22;20020;-84
2022/01/22 07:28:30;;;;;;;41.08;20.50;;;1.00;99.90;;;;;;6264915;22;20019;-83
2022/01/22 07:31:22;;;;;;;39.00;18.48;;;1.00;99.90;;;;;;6233829;23;20035;-88
2022/01/22 07:34:10;;;;;;;38.97;20.48;;;1.00;99.90;;;;;;6241636;23;20123;-88
2022/01/22 07:37:02;;;;;;;42.35;19.98;;;1.00;99.90;;;;;;6244619;23;20068;-86
2022/01/22 07:39:49;;;;;;;38.92;21.20;;;1.00;99.90;;;;;;6268743;22;20024;-88
2022/01/22 07:42:37;;;;;;;42.95;20.80;;;1.00;99.90;;;;;;6264126;23;20020;-88
2022/01/22 07:45:24;;;;;;;38.42;21.13;;;1.00;99.90;;;;;;6241857;23;20015;-89
2022/01/22 07:48:12;;;;;;;40.10;20.52;;;1.00;99.90;;;;;;6258939;23;20028;-87
2022/01/22 07:50:59;;;;;;;41.30;21.45;;;1.10;99.90;;;;;;6246569;23;20511;-87
2022/01/22 07:53:54;;;;;;;45.63;20.67;;;1.00;99.90;;;;;;6242606;23;20382;-87
2022/01/22 07:56:41;;;;;;;43.92;21.70;;;1.00;99.90;;;;;;6243027;23;20024;-88
2022/01/22 07:59:33;;;;;;;45.45;22.23;;;1.00;99.90;;;;;;6245811;23;20063;-88
2022/01/22 08:02:25;;;;;;;41.67;21.00;;;1.00;99.90;;;;;;6242521;23;20091;-88
2022/01/22 08:05:13;;;;;;;43.60;21.57;;;1.10;99.90;;;;;;6222316;23;20090;-88
2022/01/22 08:08:03;;;;;;;45.38;21.88;;;1.10;99.90;;;;;;6221182;23;20291;-88
2022/01/22 08:10:53;;;;;;;37.53;20.70;;;1.10;99.90;;;;;;6221909;23;20020;-88
2022/01/22 08:13:40;;;;;;;43.20;21.83;;;1.20;99.90;;;;;;6243682;23;20020;-87
2022/01/22 08:16:27;;;;;;;46.15;21.40;;;1.20;99.90;;;;;;6242374;23;20070;-87
2022/01/22 08:19:15;;;;;;;43.00;20.88;;;1.20;99.90;;;;;;6242107;23;20103;-88
2022/01/22 08:22:03;;;;;;;40.90;21.52;;;1.20;99.90;;;;;;6222086;23;20020;-87
2022/01/22 08:25:13;;;;;;;41.83;21.20;;;1.20;99.90;;;;;;6246338;23;20109;-88
2022/01/22 08:37:34;;;;;;;46.80;20.92;;;1.30;99.90;;;;;;6242291;23;20451;-87
2022/01/22 08:40:23;;;;;;;49.75;23.23;;;1.20;99.90;;;;;;6220069;23;20027;-88
2022/01/22 08:43:13;;;;;;;49.05;23.67;;;1.20;99.90;;;;;;6221633;23;20469;-87
2022/01/22 08:46:02;;;;;;;42.58;21.67;;;1.10;99.90;;;;;;6221020;23;20024;-88
2022/01/22 08:48:52;;;;;;;46.65;23.40;;;1.10;99.90;;;;;;6244244;23;20028;-90
2022/01/22 08:51:42;;;;;;;48.72;23.70;;;1.20;99.90;;;;;;6244230;23;20404;-90
2022/01/22 08:54:29;;;;;;;50.00;23.98;;;1.20;99.90;;;;;;6221365;23;20028;-90
2022/01/22 08:57:20;;;;;;;44.60;23.45;;;1.20;99.90;;;;;;6220602;23;20323;-90
2022/01/22 09:00:11;;;;;;;55.95;25.05;;;1.20;99.90;;;;;;6221512;23;20028;-90
2022/01/22 09:03:04;;;;;;;52.75;24.35;;;1.20;99.90;;;;;;6222736;23;20024;-90
2022/01/22 09:06:20;;;;;;;52.72;24.67;;;1.20;99.90;;;;;;6221230;23;20035;-88
2022/01/22 09:09:12;;;;;;;50.42;25.10;;;1.20;99.90;;;;;;6244510;23;20034;-89
2022/01/22 09:12:08;;;;;;;56.38;25.23;;;1.30;99.90;;;;;;6222058;23;20024;-89
2022/01/22 09:15:08;;;;;;;47.10;24.23;;;1.30;99.90;;;;;;6241811;23;20034;-88
2022/01/22 09:17:59;;;;;;;46.58;23.83;;;1.30;99.90;;;;;;6222470;23;20049;-87
2022/01/22 09:23:36;;;;;;;50.33;25.05;;;1.40;99.90;;;;;;6245972;23;20035;-89
2022/01/22 09:26:25;;;;;;;47.92;24.85;;;1.40;99.90;;;;;;6225357;23;20020;-88
2022/01/22 09:29:18;;;;;;;42.42;22.95;;;1.40;99.90;;;;;;6224215;23;20024;-91
2022/01/22 09:32:08;;;;;;;44.88;21.85;;;1.50;99.90;;;;;;6223048;23;20043;-89
2022/01/22 09:34:56;;;;;;;50.10;22.88;;;1.50;99.90;;;;;;6223677;23;20020;-88
2022/01/22 09:37:49;;;;;;;43.90;22.48;;;1.60;99.90;;;;;;6223602;23;20032;-90
2022/01/22 09:40:40;;;;;;;37.75;21.77;;;1.60;99.90;;;;;;6225693;23;20099;-88
2022/01/22 09:43:33;;;;;;;37.92;21.90;;;1.60;99.90;;;;;;6227253;23;20062;-89
2022/01/22 09:46:22;;;;;;;44.22;22.33;;;1.60;99.90;;;;;;6224946;23;20309;-87
2022/01/22 09:49:11;;;;;;;43.28;21.98;;;1.60;99.90;;;;;;6224338;23;20082;-88
2022/01/22 09:51:58;;;;;;;41.88;22.08;;;1.70;99.90;;;;;;6224259;23;20175;-88
2022/01/22 09:54:45;;;;;;;44.90;23.05;;;1.70;99.90;;;;;;6223946;23;20046;-89
2022/01/22 09:57:35;;;;;;;41.15;21.83;;;1.70;99.90;;;;;;6226216;23;20055;-88
2022/01/22 10:00:25;;;;;;;42.55;23.10;;;1.70;99.90;;;;;;6226782;23;20034;-88
2022/01/22 10:03:22;;;;;;;38.20;22.33;;;1.80;99.90;;;;;;6226251;23;20031;-89
2022/01/22 10:10:09;;;;;;;44.00;22.13;;;1.90;99.90;;;;;;6240398;23;20423;-88
2022/01/22 10:12:56;;;;;;;49.45;21.77;;;2.00;99.90;;;;;;6223792;23;20036;-89
2022/01/22 10:15:44;;;;;;;40.63;22.10;;;2.00;99.90;;;;;;6246522;23;20266;-88
2022/01/22 10:18:31;;;;;;;45.50;23.20;;;2.00;99.90;;;;;;6224348;23;20387;-88
2022/01/22 10:21:18;;;;;;;39.83;21.52;;;2.10;99.90;;;;;;6225207;23;20375;-89
2022/01/22 10:24:45;;;;;;;45.35;22.27;;;2.00;99.90;;;;;;6225934;23;20090;-88
2022/01/22 10:27:39;;;;;;;36.85;21.75;;;2.00;99.90;;;;;;6227920;23;20031;-88
2022/01/22 10:30:35;;;;;;;48.53;22.63;;;2.10;99.90;;;;;;6224508;23;20024;-88
2022/01/22 10:33:30;;;;;;;43.95;22.23;;;2.00;99.90;;;;;;6225334;23;20285;-89
2022/01/22 10:36:22;;;;;;;42.47;23.58;;;2.00;99.90;;;;;;6225192;23;20370;-89
2022/01/22 10:39:26;;;;;;;41.72;24.65;;;2.00;99.90;;;;;;6246007;23;20392;-88
2022/01/22 10:42:22;;;;;;;39.45;22.58;;;2.10;99.90;;;;;;6246070;23;20028;-90
2022/01/22 10:45:13;;;;;;;45.20;22.20;;;2.00;99.90;;;;;;6225861;23;20378;-89
2022/01/22 10:48:21;;;;;;;44.35;21.77;;;2.00;99.90;;;;;;6244355;23;20028;-88
2022/01/22 10:51:18;;;;;;;43.83;22.45;;;2.00;99.90;;;;;;6246936;23;20024;-89
2022/01/22 10:54:10;;;;;;;40.40;21.38;;;2.00;99.90;;;;;;6223659;23;20039;-88
2022/01/22 10:57:18;;;;;;;38.78;20.13;;;2.00;99.90;;;;;;6222692;23;20027;-89
2022/01/22 11:00:21;;;;;;;41.33;23.60;;;2.00;99.90;;;;;;6225161;23;20035;-87
2022/01/22 11:03:28;;;;;;;43.90;23.80;;;2.00;99.90;;;;;;6228725;23;20400;-88
2022/01/22 11:06:27;;;;;;;48.67;25.70;;;2.00;99.90;;;;;;6237701;23;20092;-89
2022/01/22 11:09:16;;;;;;;51.03;24.23;;;2.10;99.90;;;;;;6242711;23;20064;-89
2022/01/22 11:12:13;;;;;;;44.20;25.02;;;2.20;99.90;;;;;;6263657;23;20028;-88
2022/01/22 11:15:18;;;;;;;45.40;23.42;;;2.20;99.90;;;;;;6239450;23;20064;-89
2022/01/22 11:18:07;;;;;;;44.33;23.40;;;2.30;99.90;;;;;;6239646;22;20012;-87
2022/01/22 11:20:58;;;;;;;38.78;21.98;;;2.20;99.90;;;;;;6242717;23;20082;-88
2022/01/22 11:23:47;;;;;;;41.65;22.73;;;2.30;99.90;;;;;;6241140;23;20019;-89
2022/01/22 11:26:42;;;;;;;43.17;23.55;;;2.30;99.90;;;;;;6244973;23;20028;-86
2022/01/22 11:29:48;;;;;;;44.45;24.08;;;2.40;99.90;;;;;;6249452;23;20024;-89
2022/01/22 11:32:46;;;;;;;41.10;23.35;;;2.50;99.90;;;;;;6228980;23;20099;-90
2022/01/22 11:35:52;;;;;;;42.42;22.10;;;2.50;99.90;;;;;;6248075;23;20078;-88
2022/01/22 11:38:47;;;;;;;38.92;20.55;;;2.60;99.90;;;;;;6225047;23;20408;-89
2022/01/22 11:41:57;;;;;;;35.63;20.45;;;2.70;99.90;;;;;;6225605;23;20016;-90
2022/01/22 11:45:02;;;;;;;32.75;19.23;;;2.70;99.90;;;;;;6225826;23;20042;-90
2022/01/22 11:48:16;;;;;;;36.42;18.52;;;2.60;99.90;;;;;;6207361;23;20027;-89
2022/01/22 11:51:32;;;;;;;37.05;19.50;;;2.70;99.90;;;;;;6222676;23;20032;-89
2022/01/22 11:54:22;;;;;;;33.53;19.52;;;2.70;99.90;;;;;;6223071;23;20028;-89
2022/01/22 11:57:27;;;;;;;;;;;;;;;;;;;;;
2022/01/22 12:00:29;;;;;;;35.38;18.70;;;2.80;99.90;;;;;;6244347;23;20024;-90
2022/01/22 12:03:20;;;;;;;30.85;18.48;;;2.80;99.90;;;;;;6221934;23;20024;-89
2022/01/22 12:06:28;;;;;;;33.97;18.23;;;2.90;99.90;;;;;;6211540;23;20435;-89
2022/01/22 12:16:01;;;;;;;30.75;17.83;;;3.10;99.90;;;;;;6235584;22;20433;-87
2022/01/22 12:18:58;;;;;;;32.92;17.40;;;3.10;99.90;;;;;;6214868;23;20031;-86
2022/01/22 12:21:45;;;;;;;26.83;17.00;;;3.10;99.90;;;;;;6216825;23;20079;-88
2022/01/22 12:24:34;;;;;;;25.95;16.35;;;3.20;99.90;;;;;;6220918;23;20142;-84
2022/01/22 12:27:47;;;;;;;27.92;15.05;;;3.20;99.90;;;;;;6222807;23;20082;-86
2022/01/22 12:30:43;;;;;;;24.93;15.10;;;3.30;99.90;;;;;;6221540;23;20029;-87
2022/01/22 12:33:32;;;;;;;22.85;13.13;;;3.40;99.90;;;;;;6221122;23;20520;-86
2022/01/22 12:36:28;;;;;;;21.38;13.32;;;3.50;99.90;;;;;;6219729;23;20034;-86
2022/01/22 12:39:19;;;;;;;19.25;12.45;;;3.50;99.90;;;;;;6216742;23;20021;-86
2022/01/22 12:42:12;;;;;;;27.30;12.10;;;3.50;99.90;;;;;;6216401;23;20115;-88
2022/01/22 12:45:07;;;;;;;18.42;11.55;;;3.50;99.90;;;;;;6215038;23;20102;-88
2022/01/22 12:47:54;;;;;;;20.27;12.15;;;3.60;99.90;;;;;;6216470;23;20036;-88
2022/01/22 12:50:45;;;;;;;20.60;12.95;;;3.60;99.90;;;;;;6216371;23;20056;-87
2022/01/22 12:53:37;;;;;;;17.05;10.15;;;3.80;99.90;;;;;;6216031;23;20040;-87
2022/01/22 12:57:08;;;;;;;12.60;8.70;;;3.80;99.90;;;;;;6215754;23;20024;-87
2022/01/22 13:00:00;;;;;;;12.35;8.35;;;3.80;99.90;;;;;;6217141;22;20043;-88
2022/01/22 13:02:57;;;;;;;11.05;7.47;;;3.80;99.90;;;;;;6215904;23;20022;-87
2022/01/22 13:06:17;;;;;;;12.68;7.15;;;3.80;99.90;;;;;;6220255;23;20044;-88
2022/01/22 13:09:04;;;;;;;12.65;7.97;;;3.80;99.90;;;;;;6216021;23;20308;-88
2022/01/22 13:11:53;;;;;;;16.38;7.00;;;3.80;99.90;;;;;;6214025;23;20107;-87
2022/01/22 13:14:40;;;;;;;9.85;6.28;;;3.70;99.90;;;;;;6216685;23;20025;-87
2022/01/22 13:17:32;;;;;;;7.75;6.05;;;3.60;99.90;;;;;;6246776;22;20028;-89
2022/01/22 13:20:24;;;;;;;9.38;6.03;;;3.70;99.90;;;;;;6248729;22;20031;-87
2022/01/22 13:23:15;;;;;;;5.28;4.20;;;3.70;99.90;;;;;;6245848;23;20129;-89
2022/01/22 13:26:05;;;;;;;11.57;6.50;;;3.70;99.90;;;;;;6249896;23;20032;-88
2022/01/22 13:28:55;;;;;;;9.43;6.60;;;3.70;99.90;;;;;;6249254;23;20134;-85
2022/01/22 13:32:01;;;;;;;9.82;6.07;;;3.70;99.90;;;;;;6250520;23;20082;-91
2022/01/22 13:47:46;;;;;;;12.80;8.10;;;3.70;99.90;;;;;;6253288;23;20143;-89
2022/01/22 13:51:03;;;;;;;9.38;6.30;;;3.70;99.90;;;;;;6257286;23;20099;-87
2022/01/22 13:53:59;;;;;;;9.98;5.97;;;3.60;99.90;;;;;;6257337;23;20024;-88
2022/01/22 13:56:56;;;;;;;9.48;6.85;;;3.60;99.90;;;;;;6256274;23;20078;-89
2022/01/22 13:59:57;;;;;;;10.50;5.90;;;3.60;99.90;;;;;;6252139;23;20115;-88
2022/01/22 14:03:07;;;;;;;11.43;5.90;;;3.60;99.90;;;;;;6254765;22;20031;-87
2022/01/22 14:06:06;;;;;;;7.72;4.68;;;3.60;99.90;;;;;;6257495;23;20042;-88
2022/01/22 14:08:56;;;;;;;7.30;5.47;;;3.60;99.90;;;;;;6265823;22;20042;-83
2022/01/22 14:12:16;;;;;;;7.30;4.97;;;3.70;99.90;;;;;;6269188;22;20024;-87
2022/01/22 14:15:10;;;;;;;7.38;5.45;;;3.70;99.90;;;;;;6222006;22;20024;-85
2022/01/22 14:18:20;;;;;;;9.10;5.53;;;3.70;99.90;;;;;;6232676;23;20016;-88
2022/01/22 14:21:21;;;;;;;7.10;4.85;;;3.60;99.90;;;;;;6235281;22;20025;-88
2022/01/22 14:24:10;;;;;;;9.15;6.10;;;3.60;99.90;;;;;;6232293;23;20024;-90
2022/01/22 14:27:18;;;;;;;10.38;6.30;;;3.50;99.90;;;;;;6233619;23;20024;-89
2022/01/22 14:30:55;;;;;;;11.27;7.53;;;3.50;99.90;;;;;;6235078;23;20104;-90
2022/01/22 14:33:46;;;;;;;11.43;8.48;;;3.50;99.90;;;;;;6233492;23;20083;-91
2022/01/22 14:36:45;;;;;;;14.68;9.65;;;3.50;99.90;;;;;;6231120;23;20048;-89
2022/01/22 14:46:05;;;;;;;11.45;7.75;;;3.50;99.90;;;;;;6226664;22;20094;-90
2022/01/22 14:48:57;;;;;;;11.63;7.18;;;3.40;99.90;;;;;;6220871;23;20090;-89
2022/01/22 14:51:47;;;;;;;12.52;8.30;;;3.40;99.90;;;;;;6227228;23;20025;-88
2022/01/22 14:54:49;;;;;;;12.73;7.55;;;3.40;99.90;;;;;;6231576;23;20078;-90
2022/01/22 14:57:38;;;;;;;13.32;8.60;;;3.30;99.90;;;;;;6229809;23;20079;-87
2022/01/22 15:00:51;;;;;;;15.68;9.35;;;3.20;99.90;;;;;;6232771;23;20024;-87
2022/01/22 15:04:12;;;;;;;;;;;;;;;;;;;;;
2022/01/22 15:07:22;;;;;;;13.13;8.48;;;3.10;99.90;;;;;;6237566;23;20020;-84
2022/01/22 15:10:33;;;;;;;11.85;8.55;;;3.20;99.90;;;;;;6232494;23;20021;-90
2022/01/22 15:13:41;;;;;;;17.30;9.07;;;3.10;99.90;;;;;;6214650;23;20055;-90
2022/01/22 15:19:47;;;;;;;20.40;12.82;;;3.00;99.90;;;;;;6263972;23;20104;-90
2022/01/22 15:22:49;;;;;;;13.63;9.98;;;3.10;99.90;;;;;;6249663;23;20430;-89
2022/01/22 15:25:57;;;;;;;12.30;8.57;;;3.10;99.90;;;;;;6251190;23;20074;-89
2022/01/22 15:28:52;;;;;;;13.52;9.20;;;3.00;99.90;;;;;;6230509;23;20032;-89
2022/01/22 15:32:31;;;;;;;12.60;9.02;;;3.00;99.90;;;;;;6254872;23;20099;-88
2022/01/22 15:35:29;;;;;;;;;;;;;;;;;;;;;
2022/01/22 15:38:23;;;;;;;13.00;8.23;;;2.90;99.90;;;;;;6258808;23;20115;-87
2022/01/22 15:41:53;;;;;;;12.40;8.02;;;2.90;99.90;;;;;;6237148;23;20124;-87
2022/01/22 15:44:25;;;;;;;12.65;8.90;;;2.90;99.90;;;;;;6255547;23;20099;-91
2022/01/22 15:47:15;;;;;;;13.77;9.02;;;2.80;99.90;;;;;;6236802;23;20039;-89
2022/01/22 15:53:34;;;;;;;14.63;10.85;;;2.80;99.90;;;;;;6246440;23;20065;-89
2022/01/22 15:56:22;;;;;;;17.58;12.35;;;2.80;99.90;;;;;;6241281;23;20079;-89
2022/01/22 15:59:21;;;;;;;18.27;12.38;;;2.80;99.90;;;;;;6238153;23;20051;-91
2022/01/22 16:02:18;;;;;;;17.10;11.43;;;2.80;99.90;;;;;;6255350;23;20035;-90
2022/01/22 16:05:12;;;;;;;18.02;11.88;;;2.80;99.90;;;;;;6236335;23;20024;-89
2022/01/22 16:08:12;;;;;;;21.83;14.00;;;2.70;99.90;;;;;;6234783;23;20031;-89
2022/01/22 16:11:20;;;;;;;21.75;13.18;;;2.70;99.90;;;;;;6235551;23;20020;-88
2022/01/22 16:14:37;;;;;;;22.25;13.38;;;2.60;99.90;;;;;;6255566;23;20410;-89
2022/01/22 16:17:31;;;;;;;21.05;14.38;;;2.60;99.90;;;;;;6231572;23;20074;-89
2022/01/22 16:20:32;;;;;;;29.08;15.90;;;2.60;99.90;;;;;;6233217;23;20085;-88
2022/01/22 16:23:26;;;;;;;30.05;16.50;;;2.50;99.90;;;;;;6212935;23;20100;-87
2022/01/22 16:26:30;;;;;;;27.45;16.10;;;2.50;99.90;;;;;;6233951;23;20035;-88
2022/01/22 16:29:19;;;;;;;29.98;16.70;;;2.50;99.90;;;;;;6230259;23;20024;-89
2022/01/22 16:32:32;;;;;;;25.98;15.40;;;2.50;99.90;;;;;;6250540;23;20028;-89
2022/01/22 16:35:39;;;;;;;26.83;15.75;;;2.50;99.90;;;;;;6227051;23;20099;-89
2022/01/22 16:38:31;;;;;;;23.40;14.73;;;2.50;99.90;;;;;;6250328;23;20021;-88
2022/01/22 16:41:20;;;;;;;25.75;14.07;;;2.40;99.90;;;;;;6250729;23;20080;-90
2022/01/22 16:56:53;;;;;;;24.85;15.50;;;2.30;99.90;;;;;;6265271;23;20095;-90
2022/01/22 17:00:14;;;;;;;31.98;17.13;;;2.30;99.90;;;;;;6231250;23;20089;-90
2022/01/22 17:03:29;;;;;;;35.38;16.95;;;2.30;99.90;;;;;;6211955;23;20028;-88
2022/01/22 17:06:19;;;;;;;33.70;18.40;;;2.30;99.90;;;;;;6227006;23;20042;-83
2022/01/22 17:16:14;;;;;;;;;;;;;;;;;;;;;
2022/01/22 17:19:17;;;;;;;37.35;20.38;;;2.30;99.90;;;;;;6223954;23;20016;-88
2022/01/22 17:22:18;;;;;;;41.05;22.48;;;2.30;99.90;;;;;;6224862;23;20028;-92
2022/01/22 17:25:17;;;;;;;42.95;23.15;;;2.20;99.90;;;;;;6222570;23;20044;-91
2022/01/22 17:28:25;;;;;;;45.33;23.80;;;2.20;99.90;;;;;;6221557;23;20028;-87
2022/01/22 17:31:21;;;;;;;48.90;25.65;;;2.20;99.90;;;;;;6224870;23;20316;-91
2022/01/22 17:34:37;;;;;;;49.50;27.08;;;2.20;99.90;;;;;;6130281;23;20025;-89
2022/01/22 17:37:51;;;;;;;50.38;25.00;;;2.20;99.90;;;;;;6079789;23;20022;-88
2022/01/22 17:41:16;;;;;;;;;;;;;;;;;;;;;
2022/01/22 17:44:30;;;;;;;;;;;;;;;;;;;;;
2022/01/22 17:47:50;;;;;;;;;;;;;;;;;;;;;
2022/01/22 17:50:42;;;;;;;42.40;23.67;;;2.30;99.90;;;;;;6138631;23;20034;-89
2022/01/22 17:53:56;;;;;;;67.05;35.83;;;2.30;99.90;;;;;;6125095;23;20108;-89
2022/01/22 17:57:09;;;;;;;47.90;27.60;;;2.30;99.90;;;;;;6198792;23;20062;-91
2022/01/22 18:00:22;;;;;;;59.22;26.83;;;2.20;99.90;;;;;;6142515;23;20069;-88
2022/01/22 18:03:39;;;;;;;;;;;;;;;;;;;;;
2022/01/22 18:07:00;;;;;;;;;;;;;;;;;;;;;
2022/01/22 18:09:52;;;;;;;54.55;25.58;;;2.20;99.90;;;;;;6134202;23;20033;-91
2022/01/22 18:12:47;;;;;;;48.80;25.63;;;2.20;99.90;;;;;;6134272;23;20088;-89